sensor_id;sensor_type;location;lat;lon;timestamp;P1;durP1;ratioP1;P2;durP2;ratioP2
63651;SDS011;49801;37.536;-122.304;2022-07-10T00:00:02;3.67;;;1.63;;
63651;SDS011;49801;37.536;-122.304;2022-07-10T00:00:30;2.53;;;1.60;;
63651;SDS011;49801;37.536;-122.304;2022-07-10T00:00:56;7.20;;;2.00;;
63651;SDS011;49801;37.536;-122.304;2022-07-10T00:01:22;4.90;;;2.08;;
63651;SDS011;49801;37.536;-122.304;2022-07-10T00:01:48;3.97;;;1.55;;
63651;SDS011;49801;37.536;-122.304;2022-07-10T00:02:14;3.05;;;1.77;;
63651;SDS011;49801;37.536;-122.304;2022-07-10T00:02:41;2.65;;;1.60;;
63651;SDS011;49801;37.536;-122.304;2022-07-10T00:03:08;7.97;;;1.90;;
63651;SDS011;49801;37.536;-122.304;2022-07-10T00:03:34;7.50;;;1.77;;
63651;SDS011;49801;37.536;-122.304;2022-07-10T00:04:00;4.32;;;1.70;;
63651;SDS011;49801;37.536;-122.304;2022-07-10T00:04:26;5.43;;;1.35;;
63651;SDS011;49801;37.536;-122.304;2022-07-10T00:04:54;3.90;;;1.60;;
63651;SDS011;49801;37.536;-122.304;2022-07-10T00:05:20;3.13;;;1.52;;
63651;SDS011;49801;37.536;-122.304;2022-07-10T00:05:47;7.30;;;1.70;;
63651;SDS011;49801;37.536;-122.304;2022-07-10T00:06:14;5.22;;;1.73;;
63651;SDS011;49801;37.536;-122.304;2022-07-10T00:06:41;5.20;;;1.83;;
63651;SDS011;49801;37.536;-122.304;2022-07-10T00:07:12;4.88;;;1.77;;
63651;SDS011;49801;37.536;-122.304;2022-07-10T00:07:38;4.72;;;1.55;;
63651;SDS011;49801;37.536;-122.304;2022-07-10T00:08:04;3.67;;;1.60;;
63651;SDS011;49801;37.536;-122.304;2022-07-10T00:08:30;4.22;;;1.20;;
63651;SDS011;49801;37.536;-122.304;2022-07-10T00:08:56;5.85;;;1.60;;
63651;SDS011;49801;37.536;-122.304;2022-07-10T00:09:22;4.00;;;1.58;;
63651;SDS011;49801;37.536;-122.304;2022-07-10T00:09:48;4.40;;;1.90;;
63651;SDS011;49801;37.536;-122.304;2022-07-10T00:10:15;5.10;;;1.88;;
63651;SDS011;49801;37.536;-122.304;2022-07-10T00:10:46;4.38;;;1.77;;
63651;SDS011;49801;37.536;-122.304;2022-07-10T00:11:12;5.20;;;1.73;;
63651;SDS011;49801;37.536;-122.304;2022-07-10T00:11:38;5.40;;;1.58;;
63651;SDS011;49801;37.536;-122.304;2022-07-10T00:12:05;3.70;;;1.95;;
63651;SDS011;49801;37.536;-122.304;2022-07-10T00:12:31;4.00;;;1.52;;
63651;SDS011;49801;37.536;-122.304;2022-07-10T00:12:57;4.30;;;1.45;;
63651;SDS011;49801;37.536;-122.304;2022-07-10T00:13:23;5.50;;;2.20;;
63651;SDS011;49801;37.536;-122.304;2022-07-10T00:13:49;4.13;;;1.67;;
63651;SDS011;49801;37.536;-122.304;2022-07-10T00:14:15;6.18;;;2.08;;
63651;SDS011;49801;37.536;-122.304;2022-07-10T00:14:42;6.07;;;1.95;;
63651;SDS011;49801;37.536;-122.304;2022-07-10T00:15:08;3.33;;;1.65;;
63651;SDS011;49801;37.536;-122.304;2022-07-10T00:15:34;2.72;;;1.50;;
63651;SDS011;49801;37.536;-122.304;2022-07-10T00:16:01;3.70;;;2.13;;
63651;SDS011;49801;37.536;-122.304;2022-07-10T00:16:27;5.68;;;1.95;;
63651;SDS011;49801;37.536;-122.304;2022-07-10T00:16:54;6.05;;;2.03;;
63651;SDS011;49801;37.536;-122.304;2022-07-10T00:17:20;3.55;;;1.60;;
63651;SDS011;49801;37.536;-122.304;2022-07-10T00:17:46;3.80;;;1.70;;
63651;SDS011;49801;37.536;-122.304;2022-07-10T00:18:12;4.70;;;1.75;;
63651;SDS011;49801;37.536;-122.304;2022-07-10T00:18:38;4.65;;;1.52;;
63651;SDS011;49801;37.536;-122.304;2022-07-10T00:19:04;6.65;;;1.60;;
63651;SDS011;49801;37.536;-122.304;2022-07-10T00:19:30;4.25;;;1.80;;
63651;SDS011;49801;37.536;-122.304;2022-07-10T00:19:57;4.50;;;1.63;;
63651;SDS011;49801;37.536;-122.304;2022-07-10T00:20:23;3.35;;;1.40;;
63651;SDS011;49801;37.536;-122.304;2022-07-10T00:20:49;3.03;;;1.67;;
63651;SDS011;49801;37.536;-122.304;2022-07-10T00:21:15;3.33;;;1.40;;
63651;SDS011;49801;37.536;-122.304;2022-07-10T00:21:41;5.50;;;1.60;;
63651;SDS011;49801;37.536;-122.304;2022-07-10T00:22:09;4.43;;;1.50;;
63651;SDS011;49801;37.536;-122.304;2022-07-10T00:22:36;4.95;;;1.60;;
63651;SDS011;49801;37.536;-122.304;2022-07-10T00:23:05;5.82;;;1.98;;
63651;SDS011;49801;37.536;-122.304;2022-07-10T00:23:31;5.65;;;1.67;;
63651;SDS011;49801;37.536;-122.304;2022-07-10T00:23:57;2.83;;;1.63;;
63651;SDS011;49801;37.536;-122.304;2022-07-10T00:24:25;2.83;;;1.25;;
63651;SDS011;49801;37.536;-122.304;2022-07-10T00:24:51;3.70;;;1.75;;
63651;SDS011;49801;37.536;-122.304;2022-07-10T00:25:17;4.35;;;1.70;;
63651;SDS011;49801;37.536;-122.304;2022-07-10T00:25:45;5.45;;;2.15;;
63651;SDS011;49801;37.536;-122.304;2022-07-10T00:26:11;2.92;;;1.65;;
63651;SDS011;49801;37.536;-122.304;2022-07-10T00:26:37;2.65;;;1.60;;
63651;SDS011;49801;37.536;-122.304;2022-07-10T00:27:03;5.63;;;1.95;;
63651;SDS011;49801;37.536;-122.304;2022-07-10T00:27:35;2.95;;;1.42;;
63651;SDS011;49801;37.536;-122.304;2022-07-10T00:28:01;4.47;;;2.28;;
63651;SDS011;49801;37.536;-122.304;2022-07-10T00:28:27;5.25;;;1.67;;
63651;SDS011;49801;37.536;-122.304;2022-07-10T00:29:11;3.13;;;1.40;;
63651;SDS011;49801;37.536;-122.304;2022-07-10T00:29:38;5.07;;;1.73;;
63651;SDS011;49801;37.536;-122.304;2022-07-10T00:30:04;5.70;;;1.73;;
63651;SDS011;49801;37.536;-122.304;2022-07-10T00:30:33;3.80;;;1.42;;
63651;SDS011;49801;37.536;-122.304;2022-07-10T00:30:59;5.07;;;1.67;;
63651;SDS011;49801;37.536;-122.304;2022-07-10T00:31:25;2.85;;;1.60;;
63651;SDS011;49801;37.536;-122.304;2022-07-10T00:31:51;5.05;;;1.92;;
63651;SDS011;49801;37.536;-122.304;2022-07-10T00:32:17;5.32;;;1.60;;
63651;SDS011;49801;37.536;-122.304;2022-07-10T00:32:44;4.75;;;1.42;;
63651;SDS011;49801;37.536;-122.304;2022-07-10T00:33:10;4.72;;;1.65;;
63651;SDS011;49801;37.536;-122.304;2022-07-10T00:33:36;4.55;;;1.90;;
63651;SDS011;49801;37.536;-122.304;2022-07-10T00:34:03;4.38;;;2.10;;
63651;SDS011;49801;37.536;-122.304;2022-07-10T00:34:29;3.72;;;1.40;;
63651;SDS011;49801;37.536;-122.304;2022-07-10T00:34:55;6.20;;;1.80;;
63651;SDS011;49801;37.536;-122.304;2022-07-10T00:35:21;3.90;;;1.17;;
63651;SDS011;49801;37.536;-122.304;2022-07-10T00:35:48;6.35;;;1.63;;
63651;SDS011;49801;37.536;-122.304;2022-07-10T00:36:14;3.78;;;1.60;;
63651;SDS011;49801;37.536;-122.304;2022-07-10T00:36:40;8.20;;;2.20;;
63651;SDS011;49801;37.536;-122.304;2022-07-10T00:37:06;4.38;;;1.88;;
63651;SDS011;49801;37.536;-122.304;2022-07-10T00:37:33;3.53;;;1.73;;
63651;SDS011;49801;37.536;-122.304;2022-07-10T00:37:59;4.38;;;1.88;;
63651;SDS011;49801;37.536;-122.304;2022-07-10T00:38:25;8.10;;;1.80;;
63651;SDS011;49801;37.536;-122.304;2022-07-10T00:38:51;7.70;;;1.95;;
63651;SDS011;49801;37.536;-122.304;2022-07-10T00:39:17;4.32;;;1.98;;
63651;SDS011;49801;37.536;-122.304;2022-07-10T00:39:43;6.07;;;2.08;;
63651;SDS011;49801;37.536;-122.304;2022-07-10T00:40:09;4.55;;;1.73;;
63651;SDS011;49801;37.536;-122.304;2022-07-10T00:40:36;5.55;;;1.77;;
63651;SDS011;49801;37.536;-122.304;2022-07-10T00:41:02;5.07;;;1.77;;
63651;SDS011;49801;37.536;-122.304;2022-07-10T00:41:28;6.38;;;1.67;;
63651;SDS011;49801;37.536;-122.304;2022-07-10T00:41:54;4.07;;;1.80;;
63651;SDS011;49801;37.536;-122.304;2022-07-10T00:42:20;5.90;;;1.95;;
63651;SDS011;49801;37.536;-122.304;2022-07-10T00:42:46;4.57;;;1.80;;
63651;SDS011;49801;37.536;-122.304;2022-07-10T00:43:15;5.70;;;1.70;;
63651;SDS011;49801;37.536;-122.304;2022-07-10T00:43:54;3.40;;;1.65;;
63651;SDS011;49801;37.536;-122.304;2022-07-10T00:44:22;4.20;;;2.00;;
63651;SDS011;49801;37.536;-122.304;2022-07-10T00:44:49;4.20;;;2.10;;
63651;SDS011;49801;37.536;-122.304;2022-07-10T00:45:15;2.72;;;1.30;;
63651;SDS011;49801;37.536;-122.304;2022-07-10T00:45:41;3.20;;;1.75;;
63651;SDS011;49801;37.536;-122.304;2022-07-10T00:46:07;4.88;;;1.60;;
63651;SDS011;49801;37.536;-122.304;2022-07-10T00:46:35;4.68;;;1.30;;
63651;SDS011;49801;37.536;-122.304;2022-07-10T00:47:02;2.72;;;1.13;;
63651;SDS011;49801;37.536;-122.304;2022-07-10T00:47:29;3.40;;;1.52;;
63651;SDS011;49801;37.536;-122.304;2022-07-10T00:47:55;4.43;;;1.80;;
63651;SDS011;49801;37.536;-122.304;2022-07-10T00:48:21;5.97;;;1.55;;
63651;SDS011;49801;37.536;-122.304;2022-07-10T00:48:50;3.70;;;1.52;;
63651;SDS011;49801;37.536;-122.304;2022-07-10T00:49:17;3.97;;;1.30;;
63651;SDS011;49801;37.536;-122.304;2022-07-10T00:49:43;2.85;;;1.38;;
63651;SDS011;49801;37.536;-122.304;2022-07-10T00:50:09;2.85;;;1.63;;
63651;SDS011;49801;37.536;-122.304;2022-07-10T00:50:37;4.93;;;1.80;;
63651;SDS011;49801;37.536;-122.304;2022-07-10T00:51:05;6.53;;;2.05;;
63651;SDS011;49801;37.536;-122.304;2022-07-10T00:51:31;3.60;;;1.60;;
63651;SDS011;49801;37.536;-122.304;2022-07-10T00:51:59;4.35;;;1.60;;
63651;SDS011;49801;37.536;-122.304;2022-07-10T00:52:27;4.75;;;1.60;;
63651;SDS011;49801;37.536;-122.304;2022-07-10T00:52:54;4.55;;;1.80;;
63651;SDS011;49801;37.536;-122.304;2022-07-10T00:53:21;7.53;;;2.17;;
63651;SDS011;49801;37.536;-122.304;2022-07-10T00:53:50;3.92;;;1.80;;
63651;SDS011;49801;37.536;-122.304;2022-07-10T00:54:16;4.35;;;1.42;;
63651;SDS011;49801;37.536;-122.304;2022-07-10T00:54:44;5.00;;;1.40;;
63651;SDS011;49801;37.536;-122.304;2022-07-10T00:55:12;5.50;;;1.75;;
63651;SDS011;49801;37.536;-122.304;2022-07-10T00:55:40;4.45;;;1.70;;
63651;SDS011;49801;37.536;-122.304;2022-07-10T00:56:07;5.18;;;1.73;;
63651;SDS011;49801;37.536;-122.304;2022-07-10T00:56:34;2.95;;;1.50;;
63651;SDS011;49801;37.536;-122.304;2022-07-10T00:57:02;5.28;;;1.70;;
63651;SDS011;49801;37.536;-122.304;2022-07-10T00:57:30;4.10;;;1.80;;
63651;SDS011;49801;37.536;-122.304;2022-07-10T00:57:58;3.47;;;1.98;;
63651;SDS011;49801;37.536;-122.304;2022-07-10T00:58:24;4.70;;;1.85;;
63651;SDS011;49801;37.536;-122.304;2022-07-10T00:58:50;5.07;;;1.58;;
63651;SDS011;49801;37.536;-122.304;2022-07-10T00:59:17;4.38;;;1.23;;
63651;SDS011;49801;37.536;-122.304;2022-07-10T00:59:44;5.80;;;1.73;;
63651;SDS011;49801;37.536;-122.304;2022-07-10T01:00:11;4.75;;;1.85;;
63651;SDS011;49801;37.536;-122.304;2022-07-10T01:00:37;5.50;;;1.55;;
63651;SDS011;49801;37.536;-122.304;2022-07-10T01:01:04;2.75;;;1.50;;
63651;SDS011;49801;37.536;-122.304;2022-07-10T01:01:31;4.90;;;1.75;;
63651;SDS011;49801;37.536;-122.304;2022-07-10T01:01:58;5.25;;;1.75;;
63651;SDS011;49801;37.536;-122.304;2022-07-10T01:02:27;2.95;;;1.27;;
63651;SDS011;49801;37.536;-122.304;2022-07-10T01:02:53;3.03;;;1.25;;
63651;SDS011;49801;37.536;-122.304;2022-07-10T01:03:19;3.58;;;1.38;;
63651;SDS011;49801;37.536;-122.304;2022-07-10T01:03:46;3.42;;;1.38;;
63651;SDS011;49801;37.536;-122.304;2022-07-10T01:04:12;4.30;;;1.55;;
63651;SDS011;49801;37.536;-122.304;2022-07-10T01:04:38;3.83;;;1.20;;
63651;SDS011;49801;37.536;-122.304;2022-07-10T01:05:05;4.05;;;1.50;;
63651;SDS011;49801;37.536;-122.304;2022-07-10T01:05:31;3.85;;;1.25;;
63651;SDS011;49801;37.536;-122.304;2022-07-10T01:05:57;2.50;;;1.10;;
63651;SDS011;49801;37.536;-122.304;2022-07-10T01:06:24;3.30;;;1.60;;
63651;SDS011;49801;37.536;-122.304;2022-07-10T01:06:50;4.47;;;1.33;;
63651;SDS011;49801;37.536;-122.304;2022-07-10T01:07:16;2.88;;;1.02;;
63651;SDS011;49801;37.536;-122.304;2022-07-10T01:07:42;3.00;;;1.20;;
63651;SDS011;49801;37.536;-122.304;2022-07-10T01:08:08;2.60;;;0.95;;
63651;SDS011;49801;37.536;-122.304;2022-07-10T01:08:35;4.43;;;1.20;;
63651;SDS011;49801;37.536;-122.304;2022-07-10T01:09:02;3.70;;;1.00;;
63651;SDS011;49801;37.536;-122.304;2022-07-10T01:09:28;2.53;;;1.20;;
63651;SDS011;49801;37.536;-122.304;2022-07-10T01:09:55;1.38;;;0.90;;
63651;SDS011;49801;37.536;-122.304;2022-07-10T01:10:22;2.60;;;1.10;;
63651;SDS011;49801;37.536;-122.304;2022-07-10T01:10:48;3.63;;;1.50;;
63651;SDS011;49801;37.536;-122.304;2022-07-10T01:11:15;3.75;;;1.33;;
63651;SDS011;49801;37.536;-122.304;2022-07-10T01:11:41;2.45;;;1.15;;
63651;SDS011;49801;37.536;-122.304;2022-07-10T01:12:08;2.85;;;1.30;;
63651;SDS011;49801;37.536;-122.304;2022-07-10T01:12:37;2.92;;;1.20;;
63651;SDS011;49801;37.536;-122.304;2022-07-10T01:13:04;3.38;;;1.52;;
63651;SDS011;49801;37.536;-122.304;2022-07-10T01:13:30;3.40;;;1.00;;
63651;SDS011;49801;37.536;-122.304;2022-07-10T01:13:57;1.00;;;0.77;;
63651;SDS011;49801;37.536;-122.304;2022-07-10T01:14:23;3.40;;;1.05;;
63651;SDS011;49801;37.536;-122.304;2022-07-10T01:14:51;2.42;;;0.60;;
63651;SDS011;49801;37.536;-122.304;2022-07-10T01:15:17;2.78;;;1.02;;
63651;SDS011;49801;37.536;-122.304;2022-07-10T01:15:43;2.45;;;0.90;;
63651;SDS011;49801;37.536;-122.304;2022-07-10T01:16:13;3.75;;;1.35;;
63651;SDS011;49801;37.536;-122.304;2022-07-10T01:16:40;3.22;;;1.27;;
63651;SDS011;49801;37.536;-122.304;2022-07-10T01:17:08;3.53;;;1.35;;
63651;SDS011;49801;37.536;-122.304;2022-07-10T01:17:35;3.38;;;1.60;;
63651;SDS011;49801;37.536;-122.304;2022-07-10T01:18:01;3.40;;;1.38;;
63651;SDS011;49801;37.536;-122.304;2022-07-10T01:18:27;5.57;;;1.90;;
63651;SDS011;49801;37.536;-122.304;2022-07-10T01:18:54;3.83;;;1.15;;
63651;SDS011;49801;37.536;-122.304;2022-07-10T01:19:21;2.63;;;1.00;;
63651;SDS011;49801;37.536;-122.304;2022-07-10T01:19:47;3.72;;;1.08;;
63651;SDS011;49801;37.536;-122.304;2022-07-10T01:20:14;1.65;;;0.88;;
63651;SDS011;49801;37.536;-122.304;2022-07-10T01:20:40;3.60;;;1.17;;
63651;SDS011;49801;37.536;-122.304;2022-07-10T01:21:20;6.40;;;1.02;;
63651;SDS011;49801;37.536;-122.304;2022-07-10T01:21:49;3.50;;;0.80;;
63651;SDS011;49801;37.536;-122.304;2022-07-10T01:22:16;3.85;;;0.73;;
63651;SDS011;49801;37.536;-122.304;2022-07-10T01:22:42;4.63;;;1.00;;
63651;SDS011;49801;37.536;-122.304;2022-07-10T01:23:09;4.20;;;0.70;;
63651;SDS011;49801;37.536;-122.304;2022-07-10T01:23:35;4.68;;;1.10;;
63651;SDS011;49801;37.536;-122.304;2022-07-10T01:24:07;3.80;;;0.90;;
63651;SDS011;49801;37.536;-122.304;2022-07-10T01:24:35;4.22;;;1.00;;
63651;SDS011;49801;37.536;-122.304;2022-07-10T01:25:02;4.50;;;1.30;;
63651;SDS011;49801;37.536;-122.304;2022-07-10T01:25:28;3.42;;;1.13;;
63651;SDS011;49801;37.536;-122.304;2022-07-10T01:25:54;5.05;;;1.10;;
63651;SDS011;49801;37.536;-122.304;2022-07-10T01:26:21;2.88;;;1.08;;
63651;SDS011;49801;37.536;-122.304;2022-07-10T01:26:49;1.45;;;0.75;;
63651;SDS011;49801;37.536;-122.304;2022-07-10T01:27:15;3.08;;;0.95;;
63651;SDS011;49801;37.536;-122.304;2022-07-10T01:27:43;2.60;;;1.10;;
63651;SDS011;49801;37.536;-122.304;2022-07-10T01:28:09;3.30;;;1.08;;
63651;SDS011;49801;37.536;-122.304;2022-07-10T01:28:35;4.55;;;1.35;;
63651;SDS011;49801;37.536;-122.304;2022-07-10T01:29:02;5.10;;;1.30;;
63651;SDS011;49801;37.536;-122.304;2022-07-10T01:29:31;3.10;;;1.30;;
63651;SDS011;49801;37.536;-122.304;2022-07-10T01:30:00;3.83;;;0.93;;
63651;SDS011;49801;37.536;-122.304;2022-07-10T01:30:26;2.63;;;0.93;;
63651;SDS011;49801;37.536;-122.304;2022-07-10T01:30:54;2.00;;;0.93;;
63651;SDS011;49801;37.536;-122.304;2022-07-10T01:31:24;1.85;;;0.82;;
63651;SDS011;49801;37.536;-122.304;2022-07-10T01:31:51;2.45;;;0.75;;
63651;SDS011;49801;37.536;-122.304;2022-07-10T01:32:17;2.72;;;0.63;;
63651;SDS011;49801;37.536;-122.304;2022-07-10T01:32:44;2.28;;;0.60;;
63651;SDS011;49801;37.536;-122.304;2022-07-10T01:33:10;3.05;;;0.75;;
63651;SDS011;49801;37.536;-122.304;2022-07-10T01:33:37;2.50;;;0.93;;
63651;SDS011;49801;37.536;-122.304;2022-07-10T01:34:04;2.13;;;0.98;;
63651;SDS011;49801;37.536;-122.304;2022-07-10T01:34:33;2.38;;;0.75;;
63651;SDS011;49801;37.536;-122.304;2022-07-10T01:34:59;2.40;;;0.60;;
63651;SDS011;49801;37.536;-122.304;2022-07-10T01:35:25;2.22;;;0.90;;
63651;SDS011;49801;37.536;-122.304;2022-07-10T01:35:51;3.50;;;0.70;;
63651;SDS011;49801;37.536;-122.304;2022-07-10T01:36:18;2.95;;;0.73;;
63651;SDS011;49801;37.536;-122.304;2022-07-10T01:36:45;4.60;;;0.85;;
63651;SDS011;49801;37.536;-122.304;2022-07-10T01:37:12;3.90;;;1.00;;
63651;SDS011;49801;37.536;-122.304;2022-07-10T01:37:41;1.98;;;0.77;;
63651;SDS011;49801;37.536;-122.304;2022-07-10T01:38:07;2.58;;;0.73;;
63651;SDS011;49801;37.536;-122.304;2022-07-10T01:38:33;4.15;;;0.80;;
63651;SDS011;49801;37.536;-122.304;2022-07-10T01:39:00;2.60;;;0.80;;
63651;SDS011;49801;37.536;-122.304;2022-07-10T01:39:26;2.55;;;0.98;;
63651;SDS011;49801;37.536;-122.304;2022-07-10T01:39:52;2.85;;;1.08;;
63651;SDS011;49801;37.536;-122.304;2022-07-10T01:40:18;2.25;;;0.82;;
63651;SDS011;49801;37.536;-122.304;2022-07-10T01:40:44;2.97;;;0.68;;
63651;SDS011;49801;37.536;-122.304;2022-07-10T01:41:10;2.50;;;0.70;;
63651;SDS011;49801;37.536;-122.304;2022-07-10T01:41:36;2.15;;;0.85;;
63651;SDS011;49801;37.536;-122.304;2022-07-10T01:42:03;3.13;;;1.00;;
63651;SDS011;49801;37.536;-122.304;2022-07-10T01:42:29;3.78;;;1.00;;
63651;SDS011;49801;37.536;-122.304;2022-07-10T01:42:55;2.40;;;0.75;;
63651;SDS011;49801;37.536;-122.304;2022-07-10T01:43:21;3.00;;;0.90;;
63651;SDS011;49801;37.536;-122.304;2022-07-10T01:43:48;2.92;;;1.10;;
63651;SDS011;49801;37.536;-122.304;2022-07-10T01:44:14;4.75;;;1.40;;
63651;SDS011;49801;37.536;-122.304;2022-07-10T01:44:40;5.20;;;1.50;;
63651;SDS011;49801;37.536;-122.304;2022-07-10T01:45:07;2.92;;;1.23;;
63651;SDS011;49801;37.536;-122.304;2022-07-10T01:45:34;5.30;;;1.10;;
63651;SDS011;49801;37.536;-122.304;2022-07-10T01:46:00;5.50;;;0.90;;
63651;SDS011;49801;37.536;-122.304;2022-07-10T01:46:28;4.22;;;1.27;;
63651;SDS011;49801;37.536;-122.304;2022-07-10T01:46:54;2.90;;;0.80;;
63651;SDS011;49801;37.536;-122.304;2022-07-10T01:47:20;3.55;;;1.55;;
63651;SDS011;49801;37.536;-122.304;2022-07-10T01:47:49;2.38;;;1.23;;
63651;SDS011;49801;37.536;-122.304;2022-07-10T01:48:15;3.42;;;1.30;;
63651;SDS011;49801;37.536;-122.304;2022-07-10T01:48:41;5.63;;;1.58;;
63651;SDS011;49801;37.536;-122.304;2022-07-10T01:49:08;4.47;;;1.70;;
63651;SDS011;49801;37.536;-122.304;2022-07-10T01:49:34;3.97;;;1.33;;
63651;SDS011;49801;37.536;-122.304;2022-07-10T01:50:02;4.82;;;1.55;;
63651;SDS011;49801;37.536;-122.304;2022-07-10T01:50:29;2.90;;;1.10;;
63651;SDS011;49801;37.536;-122.304;2022-07-10T01:50:55;3.38;;;1.23;;
63651;SDS011;49801;37.536;-122.304;2022-07-10T01:51:21;4.35;;;1.20;;
63651;SDS011;49801;37.536;-122.304;2022-07-10T01:51:47;3.88;;;1.00;;
63651;SDS011;49801;37.536;-122.304;2022-07-10T01:52:14;5.07;;;1.42;;
63651;SDS011;49801;37.536;-122.304;2022-07-10T01:52:40;7.60;;;1.55;;
63651;SDS011;49801;37.536;-122.304;2022-07-10T01:53:08;5.20;;;1.95;;
63651;SDS011;49801;37.536;-122.304;2022-07-10T01:53:35;3.75;;;1.63;;
63651;SDS011;49801;37.536;-122.304;2022-07-10T01:54:02;6.05;;;2.00;;
63651;SDS011;49801;37.536;-122.304;2022-07-10T01:54:28;7.43;;;1.55;;
63651;SDS011;49801;37.536;-122.304;2022-07-10T01:54:56;4.30;;;1.58;;
63651;SDS011;49801;37.536;-122.304;2022-07-10T01:55:22;7.65;;;2.13;;
63651;SDS011;49801;37.536;-122.304;2022-07-10T01:55:49;5.93;;;1.35;;
63651;SDS011;49801;37.536;-122.304;2022-07-10T01:56:16;5.65;;;1.58;;
63651;SDS011;49801;37.536;-122.304;2022-07-10T01:56:42;4.15;;;1.60;;
63651;SDS011;49801;37.536;-122.304;2022-07-10T01:57:08;3.75;;;1.20;;
63651;SDS011;49801;37.536;-122.304;2022-07-10T01:57:34;6.30;;;1.83;;
63651;SDS011;49801;37.536;-122.304;2022-07-10T01:58:01;10.25;;;1.92;;
63651;SDS011;49801;37.536;-122.304;2022-07-10T01:58:27;6.03;;;1.90;;
63651;SDS011;49801;37.536;-122.304;2022-07-10T01:58:53;5.63;;;1.42;;
63651;SDS011;49801;37.536;-122.304;2022-07-10T01:59:19;5.90;;;1.63;;
63651;SDS011;49801;37.536;-122.304;2022-07-10T01:59:45;4.05;;;1.15;;
63651;SDS011;49801;37.536;-122.304;2022-07-10T02:00:12;3.72;;;1.10;;
63651;SDS011;49801;37.536;-122.304;2022-07-10T02:00:38;3.13;;;1.00;;
63651;SDS011;49801;37.536;-122.304;2022-07-10T02:01:04;3.75;;;1.02;;
63651;SDS011;49801;37.536;-122.304;2022-07-10T02:01:31;6.93;;;1.37;;
63651;SDS011;49801;37.536;-122.304;2022-07-10T02:01:57;1.95;;;0.77;;
63651;SDS011;49801;37.536;-122.304;2022-07-10T02:02:23;2.05;;;0.95;;
63651;SDS011;49801;37.536;-122.304;2022-07-10T02:02:50;4.07;;;1.23;;
63651;SDS011;49801;37.536;-122.304;2022-07-10T02:03:34;3.70;;;1.38;;
63651;SDS011;49801;37.536;-122.304;2022-07-10T02:04:19;5.82;;;1.63;;
63651;SDS011;49801;37.536;-122.304;2022-07-10T02:05:03;5.60;;;1.52;;
63651;SDS011;49801;37.536;-122.304;2022-07-10T02:05:31;5.03;;;1.55;;
63651;SDS011;49801;37.536;-122.304;2022-07-10T02:05:58;7.05;;;1.95;;
63651;SDS011;49801;37.536;-122.304;2022-07-10T02:06:24;4.80;;;1.92;;
63651;SDS011;49801;37.536;-122.304;2022-07-10T02:06:50;5.72;;;1.83;;
63651;SDS011;49801;37.536;-122.304;2022-07-10T02:07:17;5.82;;;1.92;;
63651;SDS011;49801;37.536;-122.304;2022-07-10T02:07:46;5.70;;;1.98;;
63651;SDS011;49801;37.536;-122.304;2022-07-10T02:08:12;10.38;;;1.80;;
63651;SDS011;49801;37.536;-122.304;2022-07-10T02:08:39;6.25;;;1.77;;
63651;SDS011;49801;37.536;-122.304;2022-07-10T02:09:05;9.27;;;2.28;;
63651;SDS011;49801;37.536;-122.304;2022-07-10T02:09:31;5.47;;;1.90;;
63651;SDS011;49801;37.536;-122.304;2022-07-10T02:09:57;5.50;;;1.98;;
63651;SDS011;49801;37.536;-122.304;2022-07-10T02:10:23;5.70;;;1.63;;
63651;SDS011;49801;37.536;-122.304;2022-07-10T02:10:49;3.65;;;1.45;;
63651;SDS011;49801;37.536;-122.304;2022-07-10T02:11:15;3.95;;;1.30;;
63651;SDS011;49801;37.536;-122.304;2022-07-10T02:11:41;4.28;;;1.50;;
63651;SDS011;49801;37.536;-122.304;2022-07-10T02:12:08;7.50;;;1.30;;
63651;SDS011;49801;37.536;-122.304;2022-07-10T02:12:36;6.05;;;1.63;;
63651;SDS011;49801;37.536;-122.304;2022-07-10T02:13:02;7.38;;;1.55;;
63651;SDS011;49801;37.536;-122.304;2022-07-10T02:13:28;11.60;;;2.03;;
63651;SDS011;49801;37.536;-122.304;2022-07-10T02:13:55;9.38;;;1.67;;
63651;SDS011;49801;37.536;-122.304;2022-07-10T02:14:21;5.50;;;1.60;;
63651;SDS011;49801;37.536;-122.304;2022-07-10T02:14:47;5.93;;;1.58;;
63651;SDS011;49801;37.536;-122.304;2022-07-10T02:15:13;4.85;;;1.83;;
63651;SDS011;49801;37.536;-122.304;2022-07-10T02:15:40;6.68;;;1.58;;
63651;SDS011;49801;37.536;-122.304;2022-07-10T02:16:07;4.78;;;1.63;;
63651;SDS011;49801;37.536;-122.304;2022-07-10T02:16:33;4.47;;;1.60;;
63651;SDS011;49801;37.536;-122.304;2022-07-10T02:16:59;8.38;;;2.30;;
63651;SDS011;49801;37.536;-122.304;2022-07-10T02:17:26;7.03;;;1.83;;
63651;SDS011;49801;37.536;-122.304;2022-07-10T02:17:52;5.45;;;1.48;;
63651;SDS011;49801;37.536;-122.304;2022-07-10T02:18:18;4.63;;;1.25;;
63651;SDS011;49801;37.536;-122.304;2022-07-10T02:18:46;4.60;;;1.25;;
63651;SDS011;49801;37.536;-122.304;2022-07-10T02:19:12;5.43;;;1.75;;
63651;SDS011;49801;37.536;-122.304;2022-07-10T02:19:38;4.35;;;1.58;;
63651;SDS011;49801;37.536;-122.304;2022-07-10T02:20:05;4.15;;;2.03;;
63651;SDS011;49801;37.536;-122.304;2022-07-10T02:20:31;5.85;;;1.63;;
63651;SDS011;49801;37.536;-122.304;2022-07-10T02:20:59;6.93;;;2.15;;
63651;SDS011;49801;37.536;-122.304;2022-07-10T02:21:27;7.90;;;2.08;;
63651;SDS011;49801;37.536;-122.304;2022-07-10T02:21:53;6.32;;;1.70;;
63651;SDS011;49801;37.536;-122.304;2022-07-10T02:22:19;7.93;;;1.70;;
63651;SDS011;49801;37.536;-122.304;2022-07-10T02:22:45;5.22;;;1.63;;
63651;SDS011;49801;37.536;-122.304;2022-07-10T02:23:12;4.57;;;1.48;;
63651;SDS011;49801;37.536;-122.304;2022-07-10T02:23:38;5.38;;;1.63;;
63651;SDS011;49801;37.536;-122.304;2022-07-10T02:24:06;5.30;;;1.55;;
63651;SDS011;49801;37.536;-122.304;2022-07-10T02:24:32;4.65;;;1.33;;
63651;SDS011;49801;37.536;-122.304;2022-07-10T02:24:58;4.35;;;1.95;;
63651;SDS011;49801;37.536;-122.304;2022-07-10T02:25:24;4.53;;;1.77;;
63651;SDS011;49801;37.536;-122.304;2022-07-10T02:25:50;6.20;;;1.38;;
63651;SDS011;49801;37.536;-122.304;2022-07-10T02:26:18;5.18;;;1.38;;
63651;SDS011;49801;37.536;-122.304;2022-07-10T02:26:44;4.05;;;1.17;;
63651;SDS011;49801;37.536;-122.304;2022-07-10T02:27:10;3.80;;;1.48;;
63651;SDS011;49801;37.536;-122.304;2022-07-10T02:27:36;2.90;;;1.00;;
63651;SDS011;49801;37.536;-122.304;2022-07-10T02:28:03;2.15;;;0.98;;
63651;SDS011;49801;37.536;-122.304;2022-07-10T02:28:29;2.22;;;1.08;;
63651;SDS011;49801;37.536;-122.304;2022-07-10T02:28:55;4.65;;;1.38;;
63651;SDS011;49801;37.536;-122.304;2022-07-10T02:29:21;1.73;;;0.75;;
63651;SDS011;49801;37.536;-122.304;2022-07-10T02:29:50;2.78;;;1.13;;
63651;SDS011;49801;37.536;-122.304;2022-07-10T02:30:18;5.18;;;1.08;;
63651;SDS011;49801;37.536;-122.304;2022-07-10T02:30:44;3.55;;;1.00;;
63651;SDS011;49801;37.536;-122.304;2022-07-10T02:31:10;4.13;;;1.08;;
63651;SDS011;49801;37.536;-122.304;2022-07-10T02:31:37;4.75;;;1.42;;
63651;SDS011;49801;37.536;-122.304;2022-07-10T02:32:06;4.47;;;1.20;;
63651;SDS011;49801;37.536;-122.304;2022-07-10T02:32:32;3.20;;;0.90;;
63651;SDS011;49801;37.536;-122.304;2022-07-10T02:32:58;4.05;;;1.20;;
63651;SDS011;49801;37.536;-122.304;2022-07-10T02:33:24;2.33;;;1.02;;
63651;SDS011;49801;37.536;-122.304;2022-07-10T02:33:51;6.32;;;1.30;;
63651;SDS011;49801;37.536;-122.304;2022-07-10T02:34:19;3.25;;;1.55;;
63651;SDS011;49801;37.536;-122.304;2022-07-10T02:34:45;3.50;;;0.80;;
63651;SDS011;49801;37.536;-122.304;2022-07-10T02:35:11;3.67;;;0.95;;